sensor_id;sensor_type;location;lat;lon;timestamp;pressure;altitude;pressure_sealevel;temperature;humidity
65010;BME280;51556;50.002;22.014;2023-01-08T00:00:57;99553.69;;;4.57;69.66
65010;BME280;51556;50.002;22.014;2023-01-08T00:03:23;99550.73;;;4.58;70.12
65010;BME280;51556;50.002;22.014;2023-01-08T00:05:49;99548.46;;;4.60;70.03
65010;BME280;51556;50.002;22.014;2023-01-08T00:08:14;99542.87;;;4.54;69.94
65010;BME280;51556;50.002;22.014;2023-01-08T00:10:40;99536.24;;;4.50;70.12
65010;BME280;51556;50.002;22.014;2023-01-08T00:13:06;99537.98;;;4.45;70.47
65010;BME280;51556;50.002;22.014;2023-01-08T00:15:34;99534.84;;;4.37;70.35
65010;BME280;51556;50.002;22.014;2023-01-08T00:17:59;99533.42;;;4.32;70.49
65010;BME280;51556;50.002;22.014;2023-01-08T00:20:25;99534.45;;;4.26;70.55
65010;BME280;51556;50.002;22.014;2023-01-08T00:22:51;99533.39;;;4.18;70.98
65010;BME280;51556;50.002;22.014;2023-01-08T00:25:17;99528.84;;;4.15;71.26
65010;BME280;51556;50.002;22.014;2023-01-08T00:27:44;99530.40;;;4.11;71.12
65010;BME280;51556;50.002;22.014;2023-01-08T00:30:10;99534.57;;;4.03;71.56
65010;BME280;51556;50.002;22.014;2023-01-08T00:32:36;99526.70;;;3.94;71.68
65010;BME280;51556;50.002;22.014;2023-01-08T00:35:02;99530.33;;;3.88;71.83
65010;BME280;51556;50.002;22.014;2023-01-08T00:37:27;99525.77;;;3.83;72.04
65010;BME280;51556;50.002;22.014;2023-01-08T00:39:53;99533.61;;;3.83;72.27
65010;BME280;51556;50.002;22.014;2023-01-08T00:42:19;99533.42;;;3.81;72.66
65010;BME280;51556;50.002;22.014;2023-01-08T00:44:45;99531.67;;;3.78;73.15
65010;BME280;51556;50.002;22.014;2023-01-08T00:47:10;99531.65;;;3.74;72.76
65010;BME280;51556;50.002;22.014;2023-01-08T00:49:36;99530.09;;;3.72;73.16
65010;BME280;51556;50.002;22.014;2023-01-08T00:52:01;99525.91;;;3.70;73.32
65010;BME280;51556;50.002;22.014;2023-01-08T00:54:27;99521.38;;;3.67;73.36
65010;BME280;51556;50.002;22.014;2023-01-08T00:56:54;99520.14;;;3.64;73.35
65010;BME280;51556;50.002;22.014;2023-01-08T00:59:19;99515.61;;;3.64;73.32
65010;BME280;51556;50.002;22.014;2023-01-08T01:01:46;99518.21;;;3.62;73.44
65010;BME280;51556;50.002;22.014;2023-01-08T01:04:11;99516.83;;;3.63;73.23
65010;BME280;51556;50.002;22.014;2023-01-08T01:06:39;99513.20;;;3.68;73.76
65010;BME280;51556;50.002;22.014;2023-01-08T01:09:05;99505.02;;;3.68;73.86
65010;BME280;51556;50.002;22.014;2023-01-08T01:11:30;99504.84;;;3.71;73.67
65010;BME280;51556;50.002;22.014;2023-01-08T01:13:56;99502.41;;;3.71;73.53
65010;BME280;51556;50.002;22.014;2023-01-08T01:16:22;99502.41;;;3.71;73.64
65010;BME280;51556;50.002;22.014;2023-01-08T01:18:47;99501.01;;;3.68;74.24
65010;BME280;51556;50.002;22.014;2023-01-08T01:21:31;99498.05;;;3.68;74.51
65010;BME280;51556;50.002;22.014;2023-01-08T01:24:02;99492.98;;;3.66;74.48
65010;BME280;51556;50.002;22.014;2023-01-08T01:26:28;99491.95;;;3.66;74.68
65010;BME280;51556;50.002;22.014;2023-01-08T01:28:55;99491.61;;;3.69;74.58
65010;BME280;51556;50.002;22.014;2023-01-08T01:31:22;99489.52;;;3.74;74.44
65010;BME280;51556;50.002;22.014;2023-01-08T01:33:49;99487.30;;;3.86;74.20
65010;BME280;51556;50.002;22.014;2023-01-08T01:36:16;99484.21;;;3.97;74.04
65010;BME280;51556;50.002;22.014;2023-01-08T01:38:47;99480.06;;;4.05;73.81
65010;BME280;51556;50.002;22.014;2023-01-08T01:41:36;99474.48;;;4.06;73.76
65010;BME280;51556;50.002;22.014;2023-01-08T01:47:25;99473.27;;;4.13;73.81
65010;BME280;51556;50.002;22.014;2023-01-08T01:52:24;99465.61;;;4.17;73.55
65010;BME280;51556;50.002;22.014;2023-01-08T01:54:52;99463.70;;;4.20;73.26
65010;BME280;51556;50.002;22.014;2023-01-08T01:57:18;99462.65;;;4.21;73.36
65010;BME280;51556;50.002;22.014;2023-01-08T01:59:44;99459.53;;;4.25;73.08
65010;BME280;51556;50.002;22.014;2023-01-08T02:02:11;99460.41;;;4.28;72.96
65010;BME280;51556;50.002;22.014;2023-01-08T02:04:36;99456.41;;;4.32;72.78
65010;BME280;51556;50.002;22.014;2023-01-08T02:07:37;99452.59;;;4.39;72.92
65010;BME280;51556;50.002;22.014;2023-01-08T02:10:12;99449.45;;;4.44;72.26
65010;BME280;51556;50.002;22.014;2023-01-08T02:12:47;99446.83;;;4.45;72.57
65010;BME280;51556;50.002;22.014;2023-01-08T02:15:35;99444.19;;;4.46;72.25
65010;BME280;51556;50.002;22.014;2023-01-08T02:20:39;99438.45;;;4.49;71.81
65010;BME280;51556;50.002;22.014;2023-01-08T02:31:11;99426.77;;;4.32;71.12
65010;BME280;51556;50.002;22.014;2023-01-08T02:33:37;99425.21;;;4.30;70.72
65010;BME280;51556;50.002;22.014;2023-01-08T02:41:25;99403.23;;;4.15;70.74
65010;BME280;51556;50.002;22.014;2023-01-08T02:43:56;99398.36;;;4.09;70.95
65010;BME280;51556;50.002;22.014;2023-01-08T02:46:26;99404.47;;;4.08;71.14
65010;BME280;51556;50.002;22.014;2023-01-08T02:49:06;99416.48;;;4.03;70.67
65010;BME280;51556;50.002;22.014;2023-01-08T02:51:38;99415.92;;;3.90;70.92
65010;BME280;51556;50.002;22.014;2023-01-08T02:54:09;99408.95;;;3.86;71.49
65010;BME280;51556;50.002;22.014;2023-01-08T02:56:39;99413.81;;;3.84;71.16
65010;BME280;51556;50.002;22.014;2023-01-08T02:59:06;99413.29;;;3.84;71.32
65010;BME280;51556;50.002;22.014;2023-01-08T03:01:35;99414.68;;;3.83;71.56
65010;BME280;51556;50.002;22.014;2023-01-08T03:04:05;99409.64;;;3.83;71.78
65010;BME280;51556;50.002;22.014;2023-01-08T03:06:32;99408.77;;;3.83;71.73
65010;BME280;51556;50.002;22.014;2023-01-08T03:08:58;99408.77;;;3.85;71.96
65010;BME280;51556;50.002;22.014;2023-01-08T03:11:28;99412.95;;;3.86;71.92
65010;BME280;51556;50.002;22.014;2023-01-08T03:14:01;99404.77;;;3.89;71.64
65010;BME280;51556;50.002;22.014;2023-01-08T03:16:39;99402.52;;;3.91;72.10
65010;BME280;51556;50.002;22.014;2023-01-08T03:19:19;99405.48;;;3.93;71.83
65010;BME280;51556;50.002;22.014;2023-01-08T03:21:46;99395.38;;;3.96;71.56
65010;BME280;51556;50.002;22.014;2023-01-08T03:24:15;99389.80;;;3.94;72.09
65010;BME280;51556;50.002;22.014;2023-01-08T03:26:42;99386.50;;;3.94;71.99
65010;BME280;51556;50.002;22.014;2023-01-08T03:29:13;99385.45;;;3.95;72.26
65010;BME280;51556;50.002;22.014;2023-01-08T03:31:42;99384.94;;;3.95;72.26
65010;BME280;51556;50.002;22.014;2023-01-08T03:34:10;99388.95;;;3.96;71.95
65010;BME280;51556;50.002;22.014;2023-01-08T03:36:37;99383.20;;;3.95;72.63
65010;BME280;51556;50.002;22.014;2023-01-08T03:39:18;99383.72;;;3.94;72.28
65010;BME280;51556;50.002;22.014;2023-01-08T03:41:46;99385.80;;;3.97;72.58
65010;BME280;51556;50.002;22.014;2023-01-08T03:44:12;99376.06;;;4.00;72.67
65010;BME280;51556;50.002;22.014;2023-01-08T03:46:41;99376.59;;;4.04;72.41
65010;BME280;51556;50.002;22.014;2023-01-08T03:49:09;99376.25;;;4.06;72.07
65010;BME280;51556;50.002;22.014;2023-01-08T03:51:44;99370.65;;;4.11;71.92
65010;BME280;51556;50.002;22.014;2023-01-08T03:54:23;99359.15;;;4.13;72.15
65010;BME280;51556;50.002;22.014;2023-01-08T03:56:49;99363.51;;;4.15;71.56
65010;BME280;51556;50.002;22.014;2023-01-08T03:59:16;99360.20;;;4.17;71.55
65010;BME280;51556;50.002;22.014;2023-01-08T04:01:41;99358.29;;;4.15;71.50
65010;BME280;51556;50.002;22.014;2023-01-08T04:04:07;99357.59;;;4.12;71.68
65010;BME280;51556;50.002;22.014;2023-01-08T04:06:33;99357.06;;;4.10;71.35
65010;BME280;51556;50.002;22.014;2023-01-08T04:08:58;99355.52;;;4.06;71.16
65010;BME280;51556;50.002;22.014;2023-01-08T04:11:25;99351.34;;;4.05;71.54
65010;BME280;51556;50.002;22.014;2023-01-08T04:13:50;99352.03;;;4.05;71.21
65010;BME280;51556;50.002;22.014;2023-01-08T04:16:16;99346.45;;;4.01;71.32
65010;BME280;51556;50.002;22.014;2023-01-08T04:18:41;99342.10;;;3.98;71.06
65010;BME280;51556;50.002;22.014;2023-01-08T04:21:06;99339.13;;;3.97;71.39
65010;BME280;51556;50.002;22.014;2023-01-08T04:23:32;99334.42;;;3.89;71.42
65010;BME280;51556;50.002;22.014;2023-01-08T04:25:57;99328.66;;;3.81;71.79
65010;BME280;51556;50.002;22.014;2023-01-08T04:28:23;99326.39;;;3.81;72.14
65010;BME280;51556;50.002;22.014;2023-01-08T04:30:49;99328.14;;;3.82;71.97
65010;BME280;51556;50.002;22.014;2023-01-08T04:33:15;99325.19;;;3.86;72.51
65010;BME280;51556;50.002;22.014;2023-01-08T04:35:40;99323.80;;;3.89;72.56
65010;BME280;51556;50.002;22.014;2023-01-08T04:38:05;99323.80;;;3.90;72.45
65010;BME280;51556;50.002;22.014;2023-01-08T04:40:31;99328.86;;;3.91;72.32
65010;BME280;51556;50.002;22.014;2023-01-08T04:42:57;99326.42;;;3.94;72.50
65010;BME280;51556;50.002;22.014;2023-01-08T04:45:23;99327.82;;;4.00;72.44
65010;BME280;51556;50.002;22.014;2023-01-08T04:47:54;99323.30;;;4.06;72.24
65010;BME280;51556;50.002;22.014;2023-01-08T04:50:20;99325.02;;;4.11;72.32
65010;BME280;51556;50.002;22.014;2023-01-08T04:52:45;99322.74;;;4.16;72.16
65010;BME280;51556;50.002;22.014;2023-01-08T04:55:11;99323.09;;;4.18;72.16
65010;BME280;51556;50.002;22.014;2023-01-08T04:57:36;99325.70;;;4.21;72.39
65010;BME280;51556;50.002;22.014;2023-01-08T05:00:02;99330.59;;;4.23;72.05
65010;BME280;51556;50.002;22.014;2023-01-08T05:02:28;99332.51;;;4.27;72.26
65010;BME280;51556;50.002;22.014;2023-01-08T05:04:53;99329.19;;;4.31;72.32
65010;BME280;51556;50.002;22.014;2023-01-08T05:07:18;99330.76;;;4.32;72.19
65010;BME280;51556;50.002;22.014;2023-01-08T05:09:44;99334.42;;;4.31;72.09
65010;BME280;51556;50.002;22.014;2023-01-08T05:12:09;99335.64;;;4.33;72.11
65010;BME280;51556;50.002;22.014;2023-01-08T05:14:35;99338.08;;;4.34;72.35
65010;BME280;51556;50.002;22.014;2023-01-08T05:17:34;99334.06;;;4.42;72.03
65010;BME280;51556;50.002;22.014;2023-01-08T05:19:59;99330.05;;;4.43;71.94
65010;BME280;51556;50.002;22.014;2023-01-08T05:22:25;99331.27;;;4.45;71.62
65010;BME280;51556;50.002;22.014;2023-01-08T05:24:50;99336.16;;;4.44;71.56
